Terminal Aerodrome Forecast
Issued by NWS

Home | Current Version | Previous Version | Text Only | Print | Product List | Glossary On
Versions: 1 2 3 4 5 6 7 8 9 10 11 12 13 14 15
000
FTUS46 KSGX 292331
TAFSNA
TAF
KSNA 292331Z 3000/3024 22008KT P6SM SCT025
     FM300100 VRB04KT P6SM SCT025
     FM300900 VRB04KT P6SM BKN020
     FM301700 VRB04KT P6SM SCT025
     FM302100 22008KT P6SM SCT025=

USA.gov is the U.S. government's official web portal to all federal, state and local government web resources and services.